sensor_id;sensor_type;location;lat;lon;timestamp;temperature;humidity
37528;DHT22;23372;52.050;4.810;2023-04-24T00:00:11;10.00;99.90
37528;DHT22;23372;52.050;4.810;2023-04-24T00:02:43;9.90;99.90
37528;DHT22;23372;52.050;4.810;2023-04-24T00:05:14;10.00;99.90
37528;DHT22;23372;52.050;4.810;2023-04-24T00:07:41;9.90;99.90
37528;DHT22;23372;52.050;4.810;2023-04-24T00:10:07;10.00;99.90
37528;DHT22;23372;52.050;4.810;2023-04-24T00:12:33;10.10;99.90
37528;DHT22;23372;52.050;4.810;2023-04-24T00:14:59;10.00;99.90
37528;DHT22;23372;52.050;4.810;2023-04-24T00:17:25;10.00;99.90
37528;DHT22;23372;52.050;4.810;2023-04-24T00:19:50;10.20;99.90
37528;DHT22;23372;52.050;4.810;2023-04-24T00:22:17;10.00;99.90
37528;DHT22;23372;52.050;4.810;2023-04-24T00:24:43;10.00;99.90
37528;DHT22;23372;52.050;4.810;2023-04-24T00:27:09;10.10;99.90
37528;DHT22;23372;52.050;4.810;2023-04-24T00:29:39;10.00;99.90
37528;DHT22;23372;52.050;4.810;2023-04-24T00:32:04;10.10;99.90
37528;DHT22;23372;52.050;4.810;2023-04-24T00:34:30;10.00;99.90
37528;DHT22;23372;52.050;4.810;2023-04-24T00:36:58;10.10;99.90
37528;DHT22;23372;52.050;4.810;2023-04-24T00:39:24;10.00;99.90
37528;DHT22;23372;52.050;4.810;2023-04-24T00:41:50;10.10;99.90
37528;DHT22;23372;52.050;4.810;2023-04-24T00:44:16;10.10;99.90
37528;DHT22;23372;52.050;4.810;2023-04-24T00:46:42;10.10;99.90
37528;DHT22;23372;52.050;4.810;2023-04-24T00:49:08;10.20;99.90
37528;DHT22;23372;52.050;4.810;2023-04-24T00:51:34;10.20;99.90
37528;DHT22;23372;52.050;4.810;2023-04-24T00:54:00;10.20;99.90
37528;DHT22;23372;52.050;4.810;2023-04-24T00:56:26;10.20;99.90
37528;DHT22;23372;52.050;4.810;2023-04-24T00:58:52;10.10;99.90
37528;DHT22;23372;52.050;4.810;2023-04-24T01:01:21;10.20;99.90
37528;DHT22;23372;52.050;4.810;2023-04-24T01:03:49;10.10;99.90
37528;DHT22;23372;52.050;4.810;2023-04-24T01:06:16;10.20;99.90
37528;DHT22;23372;52.050;4.810;2023-04-24T01:08:43;10.20;99.90
37528;DHT22;23372;52.050;4.810;2023-04-24T01:11:10;10.20;99.90
37528;DHT22;23372;52.050;4.810;2023-04-24T01:13:36;10.20;99.90
37528;DHT22;23372;52.050;4.810;2023-04-24T01:16:02;10.20;99.90
37528;DHT22;23372;52.050;4.810;2023-04-24T01:18:28;10.10;99.90
37528;DHT22;23372;52.050;4.810;2023-04-24T01:20:57;10.10;99.90
37528;DHT22;23372;52.050;4.810;2023-04-24T01:23:23;10.10;99.90
37528;DHT22;23372;52.050;4.810;2023-04-24T01:25:50;10.20;99.90
37528;DHT22;23372;52.050;4.810;2023-04-24T01:28:17;10.30;99.90
37528;DHT22;23372;52.050;4.810;2023-04-24T01:30:43;10.30;99.90
37528;DHT22;23372;52.050;4.810;2023-04-24T01:33:09;10.10;99.90
37528;DHT22;23372;52.050;4.810;2023-04-24T01:35:36;10.10;99.90
37528;DHT22;23372;52.050;4.810;2023-04-24T01:38:02;10.10;99.90
37528;DHT22;23372;52.050;4.810;2023-04-24T01:40:28;10.20;99.90
37528;DHT22;23372;52.050;4.810;2023-04-24T01:42:54;10.10;99.90
37528;DHT22;23372;52.050;4.810;2023-04-24T01:45:20;10.10;99.90
37528;DHT22;23372;52.050;4.810;2023-04-24T01:47:46;10.10;99.90
37528;DHT22;23372;52.050;4.810;2023-04-24T01:50:12;10.10;99.90
37528;DHT22;23372;52.050;4.810;2023-04-24T01:52:37;10.00;99.90
37528;DHT22;23372;52.050;4.810;2023-04-24T01:55:04;10.00;99.90
37528;DHT22;23372;52.050;4.810;2023-04-24T01:57:31;10.00;99.90
37528;DHT22;23372;52.050;4.810;2023-04-24T01:59:57;10.10;99.90
37528;DHT22;23372;52.050;4.810;2023-04-24T02:02:23;10.00;99.90
37528;DHT22;23372;52.050;4.810;2023-04-24T02:04:55;10.10;99.90
37528;DHT22;23372;52.050;4.810;2023-04-24T02:07:21;10.10;99.90
37528;DHT22;23372;52.050;4.810;2023-04-24T02:09:47;10.10;99.90
37528;DHT22;23372;52.050;4.810;2023-04-24T02:12:13;10.10;99.90
37528;DHT22;23372;52.050;4.810;2023-04-24T02:14:39;10.10;99.90
37528;DHT22;23372;52.050;4.810;2023-04-24T02:17:04;10.10;99.90
37528;DHT22;23372;52.050;4.810;2023-04-24T02:19:30;10.10;99.90
37528;DHT22;23372;52.050;4.810;2023-04-24T02:21:59;10.00;99.90
37528;DHT22;23372;52.050;4.810;2023-04-24T02:24:25;10.00;99.90
37528;DHT22;23372;52.050;4.810;2023-04-24T02:26:51;10.00;99.90
37528;DHT22;23372;52.050;4.810;2023-04-24T02:29:16;10.00;99.90
37528;DHT22;23372;52.050;4.810;2023-04-24T02:31:43;10.00;99.90
37528;DHT22;23372;52.050;4.810;2023-04-24T02:34:09;9.90;99.90
37528;DHT22;23372;52.050;4.810;2023-04-24T02:36:34;10.00;99.90
37528;DHT22;23372;52.050;4.810;2023-04-24T02:39:00;10.00;99.90
37528;DHT22;23372;52.050;4.810;2023-04-24T02:41:26;10.00;99.90
37528;DHT22;23372;52.050;4.810;2023-04-24T02:43:57;10.00;99.90
37528;DHT22;23372;52.050;4.810;2023-04-24T02:46:23;10.20;99.90
37528;DHT22;23372;52.050;4.810;2023-04-24T02:48:48;10.10;99.90
37528;DHT22;23372;52.050;4.810;2023-04-24T02:51:14;10.00;99.90
37528;DHT22;23372;52.050;4.810;2023-04-24T02:53:40;9.90;99.90
37528;DHT22;23372;52.050;4.810;2023-04-24T02:56:06;10.00;99.90
37528;DHT22;23372;52.050;4.810;2023-04-24T02:58:31;9.90;99.90
37528;DHT22;23372;52.050;4.810;2023-04-24T03:00:57;10.00;99.90
37528;DHT22;23372;52.050;4.810;2023-04-24T03:03:23;10.10;99.90
37528;DHT22;23372;52.050;4.810;2023-04-24T03:05:49;10.10;99.90
37528;DHT22;23372;52.050;4.810;2023-04-24T03:08:15;10.00;99.90
37528;DHT22;23372;52.050;4.810;2023-04-24T03:10:41;10.00;99.90
37528;DHT22;23372;52.050;4.810;2023-04-24T03:13:07;10.10;99.90
37528;DHT22;23372;52.050;4.810;2023-04-24T03:15:32;10.10;99.90
37528;DHT22;23372;52.050;4.810;2023-04-24T03:17:58;10.00;99.90
37528;DHT22;23372;52.050;4.810;2023-04-24T03:20:23;10.00;99.90
37528;DHT22;23372;52.050;4.810;2023-04-24T03:22:50;9.90;99.90
37528;DHT22;23372;52.050;4.810;2023-04-24T03:25:15;9.90;99.90
37528;DHT22;23372;52.050;4.810;2023-04-24T03:27:41;9.90;99.90
37528;DHT22;23372;52.050;4.810;2023-04-24T03:30:07;9.90;99.90
37528;DHT22;23372;52.050;4.810;2023-04-24T03:32:33;9.80;99.90
37528;DHT22;23372;52.050;4.810;2023-04-24T03:34:59;9.90;99.90
37528;DHT22;23372;52.050;4.810;2023-04-24T03:37:24;9.80;99.90
37528;DHT22;23372;52.050;4.810;2023-04-24T03:39:51;9.70;99.90
37528;DHT22;23372;52.050;4.810;2023-04-24T03:42:17;9.70;99.90
37528;DHT22;23372;52.050;4.810;2023-04-24T03:44:43;9.60;99.90
37528;DHT22;23372;52.050;4.810;2023-04-24T03:47:08;9.70;99.90
37528;DHT22;23372;52.050;4.810;2023-04-24T03:49:35;9.60;99.90
37528;DHT22;23372;52.050;4.810;2023-04-24T03:52:01;9.50;99.90
37528;DHT22;23372;52.050;4.810;2023-04-24T03:54:27;9.50;99.90
37528;DHT22;23372;52.050;4.810;2023-04-24T03:56:53;9.50;99.90
37528;DHT22;23372;52.050;4.810;2023-04-24T03:59:18;9.50;99.90
37528;DHT22;23372;52.050;4.810;2023-04-24T04:01:44;9.50;99.90
37528;DHT22;23372;52.050;4.810;2023-04-24T04:04:11;9.60;99.90
37528;DHT22;23372;52.050;4.810;2023-04-24T04:06:37;9.70;99.90
37528;DHT22;23372;52.050;4.810;2023-04-24T04:09:03;9.60;99.90
37528;DHT22;23372;52.050;4.810;2023-04-24T04:11:29;9.60;99.90
37528;DHT22;23372;52.050;4.810;2023-04-24T04:13:55;9.60;99.90
37528;DHT22;23372;52.050;4.810;2023-04-24T04:16:22;9.60;99.90
37528;DHT22;23372;52.050;4.810;2023-04-24T04:18:47;9.60;99.90
37528;DHT22;23372;52.050;4.810;2023-04-24T04:21:13;9.60;99.90
37528;DHT22;23372;52.050;4.810;2023-04-24T04:23:39;9.60;99.90
37528;DHT22;23372;52.050;4.810;2023-04-24T04:26:05;9.60;99.90
37528;DHT22;23372;52.050;4.810;2023-04-24T04:28:31;9.50;99.90
37528;DHT22;23372;52.050;4.810;2023-04-24T04:30:57;9.60;99.90
37528;DHT22;23372;52.050;4.810;2023-04-24T04:33:26;9.60;99.90
37528;DHT22;23372;52.050;4.810;2023-04-24T04:35:52;9.50;99.90
37528;DHT22;23372;52.050;4.810;2023-04-24T04:38:20;9.50;99.90
37528;DHT22;23372;52.050;4.810;2023-04-24T04:40:46;9.50;99.90
37528;DHT22;23372;52.050;4.810;2023-04-24T04:43:12;9.60;99.90
37528;DHT22;23372;52.050;4.810;2023-04-24T04:45:41;9.50;99.90
37528;DHT22;23372;52.050;4.810;2023-04-24T04:48:09;9.50;99.90
37528;DHT22;23372;52.050;4.810;2023-04-24T04:50:35;9.60;99.90
37528;DHT22;23372;52.050;4.810;2023-04-24T04:53:01;9.50;99.90
37528;DHT22;23372;52.050;4.810;2023-04-24T04:55:27;9.60;99.90
37528;DHT22;23372;52.050;4.810;2023-04-24T04:57:52;9.50;99.90
37528;DHT22;23372;52.050;4.810;2023-04-24T05:00:18;9.50;99.90
37528;DHT22;23372;52.050;4.810;2023-04-24T05:02:44;9.50;99.90
37528;DHT22;23372;52.050;4.810;2023-04-24T05:05:10;9.40;99.90
37528;DHT22;23372;52.050;4.810;2023-04-24T05:07:36;9.50;99.90
37528;DHT22;23372;52.050;4.810;2023-04-24T05:10:01;9.40;99.90
37528;DHT22;23372;52.050;4.810;2023-04-24T05:12:27;9.50;99.90
37528;DHT22;23372;52.050;4.810;2023-04-24T05:14:53;9.50;99.90
37528;DHT22;23372;52.050;4.810;2023-04-24T05:17:19;9.50;99.90
37528;DHT22;23372;52.050;4.810;2023-04-24T05:19:45;9.60;99.90
37528;DHT22;23372;52.050;4.810;2023-04-24T05:22:11;9.50;99.90
37528;DHT22;23372;52.050;4.810;2023-04-24T05:24:37;9.60;99.90
37528;DHT22;23372;52.050;4.810;2023-04-24T05:27:03;9.60;99.90
37528;DHT22;23372;52.050;4.810;2023-04-24T05:29:38;9.60;99.90
37528;DHT22;23372;52.050;4.810;2023-04-24T05:32:04;9.60;99.90
37528;DHT22;23372;52.050;4.810;2023-04-24T05:34:29;9.60;99.90
37528;DHT22;23372;52.050;4.810;2023-04-24T05:36:55;9.50;99.90
37528;DHT22;23372;52.050;4.810;2023-04-24T05:39:21;9.50;99.90
37528;DHT22;23372;52.050;4.810;2023-04-24T05:41:46;9.40;99.90
37528;DHT22;23372;52.050;4.810;2023-04-24T05:44:12;9.40;99.90
37528;DHT22;23372;52.050;4.810;2023-04-24T05:46:38;9.30;99.90
37528;DHT22;23372;52.050;4.810;2023-04-24T05:49:04;9.30;99.90
37528;DHT22;23372;52.050;4.810;2023-04-24T05:51:33;9.20;99.90
37528;DHT22;23372;52.050;4.810;2023-04-24T05:53:58;9.10;99.90
37528;DHT22;23372;52.050;4.810;2023-04-24T05:56:24;9.10;99.90
37528;DHT22;23372;52.050;4.810;2023-04-24T05:58:49;9.10;99.90
37528;DHT22;23372;52.050;4.810;2023-04-24T06:01:15;9.10;99.90
37528;DHT22;23372;52.050;4.810;2023-04-24T06:03:41;9.10;99.90
37528;DHT22;23372;52.050;4.810;2023-04-24T06:06:07;9.10;99.90
37528;DHT22;23372;52.050;4.810;2023-04-24T06:08:33;9.00;99.90
37528;DHT22;23372;52.050;4.810;2023-04-24T06:10:59;9.00;99.90
37528;DHT22;23372;52.050;4.810;2023-04-24T06:13:25;8.90;99.90
37528;DHT22;23372;52.050;4.810;2023-04-24T06:15:52;8.90;99.90
37528;DHT22;23372;52.050;4.810;2023-04-24T06:18:18;8.90;99.90
37528;DHT22;23372;52.050;4.810;2023-04-24T06:20:44;8.90;99.90
37528;DHT22;23372;52.050;4.810;2023-04-24T06:23:10;8.80;99.90
37528;DHT22;23372;52.050;4.810;2023-04-24T06:25:36;8.90;99.90
37528;DHT22;23372;52.050;4.810;2023-04-24T06:28:03;8.90;99.90
37528;DHT22;23372;52.050;4.810;2023-04-24T06:30:29;8.90;99.90
37528;DHT22;23372;52.050;4.810;2023-04-24T06:32:54;9.00;99.90
37528;DHT22;23372;52.050;4.810;2023-04-24T06:35:20;9.00;99.90
37528;DHT22;23372;52.050;4.810;2023-04-24T06:37:46;9.00;99.90
37528;DHT22;23372;52.050;4.810;2023-04-24T06:40:12;9.00;99.90
37528;DHT22;23372;52.050;4.810;2023-04-24T06:42:38;9.00;99.90
37528;DHT22;23372;52.050;4.810;2023-04-24T06:45:04;9.00;99.90
37528;DHT22;23372;52.050;4.810;2023-04-24T06:47:30;9.10;99.90
37528;DHT22;23372;52.050;4.810;2023-04-24T06:49:56;9.10;99.90
37528;DHT22;23372;52.050;4.810;2023-04-24T06:52:22;9.00;99.90
37528;DHT22;23372;52.050;4.810;2023-04-24T06:54:48;9.00;99.90
37528;DHT22;23372;52.050;4.810;2023-04-24T06:57:13;9.00;99.90
37528;DHT22;23372;52.050;4.810;2023-04-24T06:59:41;9.00;99.90
37528;DHT22;23372;52.050;4.810;2023-04-24T07:02:07;9.00;99.90
37528;DHT22;23372;52.050;4.810;2023-04-24T07:04:33;9.00;99.90
37528;DHT22;23372;52.050;4.810;2023-04-24T07:06:58;9.10;99.90
37528;DHT22;23372;52.050;4.810;2023-04-24T07:09:25;9.10;99.90
37528;DHT22;23372;52.050;4.810;2023-04-24T07:11:52;9.10;99.90
37528;DHT22;23372;52.050;4.810;2023-04-24T07:14:19;9.10;99.90
37528;DHT22;23372;52.050;4.810;2023-04-24T07:16:45;9.10;99.90
37528;DHT22;23372;52.050;4.810;2023-04-24T07:19:11;9.10;99.90
37528;DHT22;23372;52.050;4.810;2023-04-24T07:21:37;9.10;99.90
37528;DHT22;23372;52.050;4.810;2023-04-24T07:24:02;9.10;99.90
37528;DHT22;23372;52.050;4.810;2023-04-24T07:26:29;9.10;99.90
37528;DHT22;23372;52.050;4.810;2023-04-24T07:28:55;9.10;99.90
37528;DHT22;23372;52.050;4.810;2023-04-24T07:31:21;9.00;99.90
37528;DHT22;23372;52.050;4.810;2023-04-24T07:33:47;9.00;99.90
37528;DHT22;23372;52.050;4.810;2023-04-24T07:36:14;9.00;99.90
37528;DHT22;23372;52.050;4.810;2023-04-24T07:38:45;8.90;99.90
37528;DHT22;23372;52.050;4.810;2023-04-24T07:41:10;8.90;99.90
37528;DHT22;23372;52.050;4.810;2023-04-24T07:43:36;8.90;99.90
37528;DHT22;23372;52.050;4.810;2023-04-24T07:46:02;8.90;99.90
37528;DHT22;23372;52.050;4.810;2023-04-24T07:48:27;9.00;99.90
37528;DHT22;23372;52.050;4.810;2023-04-24T07:50:53;9.00;99.90
37528;DHT22;23372;52.050;4.810;2023-04-24T07:53:19;9.00;99.90
37528;DHT22;23372;52.050;4.810;2023-04-24T07:55:45;9.00;99.90
37528;DHT22;23372;52.050;4.810;2023-04-24T07:58:11;9.10;99.90
37528;DHT22;23372;52.050;4.810;2023-04-24T08:00:36;9.10;99.90
37528;DHT22;23372;52.050;4.810;2023-04-24T08:03:02;9.10;99.90
37528;DHT22;23372;52.050;4.810;2023-04-24T08:05:27;9.10;99.90
37528;DHT22;23372;52.050;4.810;2023-04-24T08:07:54;9.10;99.90
37528;DHT22;23372;52.050;4.810;2023-04-24T08:10:21;9.20;99.90
37528;DHT22;23372;52.050;4.810;2023-04-24T08:12:47;9.30;99.90
37528;DHT22;23372;52.050;4.810;2023-04-24T08:15:13;9.30;99.90
37528;DHT22;23372;52.050;4.810;2023-04-24T08:17:42;9.40;99.90
37528;DHT22;23372;52.050;4.810;2023-04-24T08:20:08;9.30;99.90
37528;DHT22;23372;52.050;4.810;2023-04-24T08:22:41;9.50;99.90
37528;DHT22;23372;52.050;4.810;2023-04-24T08:25:08;9.40;99.90
37528;DHT22;23372;52.050;4.810;2023-04-24T08:27:33;9.30;99.90
37528;DHT22;23372;52.050;4.810;2023-04-24T08:29:59;9.30;99.90
37528;DHT22;23372;52.050;4.810;2023-04-24T08:32:25;9.30;99.90
37528;DHT22;23372;52.050;4.810;2023-04-24T08:34:57;9.40;99.90
37528;DHT22;23372;52.050;4.810;2023-04-24T08:37:23;9.40;99.90
37528;DHT22;23372;52.050;4.810;2023-04-24T08:39:50;9.50;99.90
37528;DHT22;23372;52.050;4.810;2023-04-24T08:42:17;9.50;99.90
37528;DHT22;23372;52.050;4.810;2023-04-24T08:44:43;9.40;99.90
37528;DHT22;23372;52.050;4.810;2023-04-24T08:47:10;9.50;99.90
37528;DHT22;23372;52.050;4.810;2023-04-24T08:49:36;9.60;99.90
37528;DHT22;23372;52.050;4.810;2023-04-24T08:52:03;9.70;99.90
37528;DHT22;23372;52.050;4.810;2023-04-24T08:54:29;10.00;99.90
37528;DHT22;23372;52.050;4.810;2023-04-24T08:56:58;10.30;99.90
37528;DHT22;23372;52.050;4.810;2023-04-24T08:59:24;10.30;99.90
37528;DHT22;23372;52.050;4.810;2023-04-24T09:01:51;10.40;99.90
37528;DHT22;23372;52.050;4.810;2023-04-24T09:04:20;10.50;99.90
37528;DHT22;23372;52.050;4.810;2023-04-24T09:06:48;10.30;99.90
37528;DHT22;23372;52.050;4.810;2023-04-24T09:09:16;10.10;99.90
37528;DHT22;23372;52.050;4.810;2023-04-24T09:11:43;10.00;99.90
37528;DHT22;23372;52.050;4.810;2023-04-24T09:14:09;9.90;99.90
37528;DHT22;23372;52.050;4.810;2023-04-24T09:16:36;9.70;99.90
37528;DHT22;23372;52.050;4.810;2023-04-24T09:19:02;9.70;99.90
37528;DHT22;23372;52.050;4.810;2023-04-24T09:21:35;9.70;99.90
37528;DHT22;23372;52.050;4.810;2023-04-24T09:24:06;9.90;99.90
37528;DHT22;23372;52.050;4.810;2023-04-24T09:26:35;10.00;99.90
37528;DHT22;23372;52.050;4.810;2023-04-24T09:29:01;10.20;99.90
37528;DHT22;23372;52.050;4.810;2023-04-24T09:31:28;10.20;99.90
37528;DHT22;23372;52.050;4.810;2023-04-24T09:34:00;10.10;99.90
37528;DHT22;23372;52.050;4.810;2023-04-24T09:36:37;9.90;99.90
37528;DHT22;23372;52.050;4.810;2023-04-24T09:39:08;9.70;99.90
37528;DHT22;23372;52.050;4.810;2023-04-24T09:41:53;9.60;99.90
37528;DHT22;23372;52.050;4.810;2023-04-24T09:44:20;9.60;99.90
37528;DHT22;23372;52.050;4.810;2023-04-24T09:46:51;9.60;99.90
37528;DHT22;23372;52.050;4.810;2023-04-24T09:49:23;9.80;99.90
37528;DHT22;23372;52.050;4.810;2023-04-24T09:51:49;9.90;99.90
37528;DHT22;23372;52.050;4.810;2023-04-24T09:54:17;10.20;99.90
37528;DHT22;23372;52.050;4.810;2023-04-24T09:56:44;10.40;99.90
37528;DHT22;23372;52.050;4.810;2023-04-24T09:59:14;10.50;99.90
37528;DHT22;23372;52.050;4.810;2023-04-24T10:01:40;10.60;99.90
37528;DHT22;23372;52.050;4.810;2023-04-24T10:04:23;10.70;99.90
37528;DHT22;23372;52.050;4.810;2023-04-24T10:06:51;10.40;99.90
37528;DHT22;23372;52.050;4.810;2023-04-24T10:09:22;10.10;99.90
37528;DHT22;23372;52.050;4.810;2023-04-24T10:11:51;9.80;99.90
37528;DHT22;23372;52.050;4.810;2023-04-24T10:14:19;9.70;99.90
37528;DHT22;23372;52.050;4.810;2023-04-24T10:16:46;9.60;99.90
37528;DHT22;23372;52.050;4.810;2023-04-24T10:19:12;9.60;99.90
37528;DHT22;23372;52.050;4.810;2023-04-24T10:21:40;9.70;99.90
37528;DHT22;23372;52.050;4.810;2023-04-24T10:24:08;10.10;99.90
37528;DHT22;23372;52.050;4.810;2023-04-24T10:26:34;10.30;99.90
37528;DHT22;23372;52.050;4.810;2023-04-24T10:29:01;10.50;99.90
37528;DHT22;23372;52.050;4.810;2023-04-24T10:31:29;10.60;99.90
37528;DHT22;23372;52.050;4.810;2023-04-24T10:33:56;10.60;99.90
37528;DHT22;23372;52.050;4.810;2023-04-24T10:36:24;10.70;99.90
37528;DHT22;23372;52.050;4.810;2023-04-24T10:38:52;11.10;99.90
37528;DHT22;23372;52.050;4.810;2023-04-24T10:41:21;11.20;99.90
37528;DHT22;23372;52.050;4.810;2023-04-24T10:44:12;11.10;99.90
37528;DHT22;23372;52.050;4.810;2023-04-24T10:46:42;11.30;99.90
37528;DHT22;23372;52.050;4.810;2023-04-24T10:49:08;11.40;99.90
37528;DHT22;23372;52.050;4.810;2023-04-24T10:51:47;11.90;99.90
37528;DHT22;23372;52.050;4.810;2023-04-24T10:54:33;12.20;99.90
37528;DHT22;23372;52.050;4.810;2023-04-24T10:59:47;12.40;99.90
37528;DHT22;23372;52.050;4.810;2023-04-24T11:02:17;12.50;99.90
37528;DHT22;23372;52.050;4.810;2023-04-24T11:04:43;12.60;99.90
37528;DHT22;23372;52.050;4.810;2023-04-24T11:07:10;12.50;99.90
37528;DHT22;23372;52.050;4.810;2023-04-24T11:09:36;11.80;99.90
37528;DHT22;23372;52.050;4.810;2023-04-24T11:12:07;11.30;99.90
37528;DHT22;23372;52.050;4.810;2023-04-24T11:20:09;10.70;99.90
37528;DHT22;23372;52.050;4.810;2023-04-24T11:22:36;10.70;99.90
37528;DHT22;23372;52.050;4.810;2023-04-24T11:25:03;11.20;99.90
37528;DHT22;23372;52.050;4.810;2023-04-24T11:27:39;12.10;99.90
37528;DHT22;23372;52.050;4.810;2023-04-24T11:30:06;12.30;99.90
37528;DHT22;23372;52.050;4.810;2023-04-24T11:35:00;11.10;99.90
37528;DHT22;23372;52.050;4.810;2023-04-24T11:39:59;9.90;99.90
37528;DHT22;23372;52.050;4.810;2023-04-24T11:42:25;9.70;99.90
37528;DHT22;23372;52.050;4.810;2023-04-24T11:44:55;9.70;99.90
37528;DHT22;23372;52.050;4.810;2023-04-24T11:47:28;9.80;99.90
37528;DHT22;23372;52.050;4.810;2023-04-24T11:49:54;9.80;99.90
37528;DHT22;23372;52.050;4.810;2023-04-24T11:52:20;10.00;99.90
37528;DHT22;23372;52.050;4.810;2023-04-24T11:54:49;10.20;99.90
37528;DHT22;23372;52.050;4.810;2023-04-24T11:57:22;10.20;99.90
37528;DHT22;23372;52.050;4.810;2023-04-24T11:59:49;10.10;99.90
37528;DHT22;23372;52.050;4.810;2023-04-24T12:02:26;10.20;99.90
37528;DHT22;23372;52.050;4.810;2023-04-24T12:04:53;10.30;99.90
37528;DHT22;23372;52.050;4.810;2023-04-24T12:07:19;10.30;99.90
37528;DHT22;23372;52.050;4.810;2023-04-24T12:09:56;10.20;99.90
37528;DHT22;23372;52.050;4.810;2023-04-24T12:12:25;10.20;99.90
37528;DHT22;23372;52.050;4.810;2023-04-24T12:14:56;10.20;99.90
37528;DHT22;23372;52.050;4.810;2023-04-24T12:17:32;10.10;99.90
37528;DHT22;23372;52.050;4.810;2023-04-24T12:20:02;10.10;99.90
37528;DHT22;23372;52.050;4.810;2023-04-24T12:22:48;10.00;99.90
37528;DHT22;23372;52.050;4.810;2023-04-24T12:25:15;10.00;99.90
37528;DHT22;23372;52.050;4.810;2023-04-24T12:27:41;10.00;99.90
37528;DHT22;23372;52.050;4.810;2023-04-24T12:30:12;10.00;99.90
37528;DHT22;23372;52.050;4.810;2023-04-24T12:32:46;9.90;99.90
37528;DHT22;23372;52.050;4.810;2023-04-24T12:35:13;9.90;99.90
37528;DHT22;23372;52.050;4.810;2023-04-24T12:37:41;10.00;99.90
37528;DHT22;23372;52.050;4.810;2023-04-24T12:40:11;10.20;99.90
37528;DHT22;23372;52.050;4.810;2023-04-24T12:42:46;10.40;99.90
37528;DHT22;23372;52.050;4.810;2023-04-24T12:45:13;10.60;99.90
37528;DHT22;23372;52.050;4.810;2023-04-24T12:47:39;10.80;99.90
37528;DHT22;23372;52.050;4.810;2023-04-24T12:50:09;11.00;99.90
37528;DHT22;23372;52.050;4.810;2023-04-24T12:52:36;11.40;99.90
37528;DHT22;23372;52.050;4.810;2023-04-24T12:55:02;11.30;99.90
37528;DHT22;23372;52.050;4.810;2023-04-24T12:57:29;11.10;99.90
37528;DHT22;23372;52.050;4.810;2023-04-24T12:59:57;11.50;99.90
37528;DHT22;23372;52.050;4.810;2023-04-24T13:02:32;11.70;99.90
37528;DHT22;23372;52.050;4.810;2023-04-24T13:04:58;11.50;99.90
37528;DHT22;23372;52.050;4.810;2023-04-24T13:07:24;11.20;99.90
37528;DHT22;23372;52.050;4.810;2023-04-24T13:09:51;11.60;99.90
37528;DHT22;23372;52.050;4.810;2023-04-24T13:12:17;12.20;99.90
37528;DHT22;23372;52.050;4.810;2023-04-24T13:14:43;12.50;99.90
37528;DHT22;23372;52.050;4.810;2023-04-24T13:17:09;12.40;99.90
37528;DHT22;23372;52.050;4.810;2023-04-24T13:19:38;12.50;99.90
37528;DHT22;23372;52.050;4.810;2023-04-24T13:22:04;12.50;99.90
37528;DHT22;23372;52.050;4.810;2023-04-24T13:24:31;12.40;99.90
37528;DHT22;23372;52.050;4.810;2023-04-24T13:26:57;12.10;99.90
37528;DHT22;23372;52.050;4.810;2023-04-24T13:29:23;12.00;99.90
37528;DHT22;23372;52.050;4.810;2023-04-24T13:31:53;12.00;99.90
37528;DHT22;23372;52.050;4.810;2023-04-24T13:34:23;12.30;99.90
37528;DHT22;23372;52.050;4.810;2023-04-24T13:36:50;12.40;99.90
37528;DHT22;23372;52.050;4.810;2023-04-24T13:39:16;12.10;99.90
37528;DHT22;23372;52.050;4.810;2023-04-24T13:41:42;11.80;99.90
37528;DHT22;23372;52.050;4.810;2023-04-24T13:44:08;11.60;99.90
37528;DHT22;23372;52.050;4.810;2023-04-24T13:46:33;11.90;99.90
37528;DHT22;23372;52.050;4.810;2023-04-24T13:48:59;12.10;99.90
37528;DHT22;23372;52.050;4.810;2023-04-24T13:51:26;11.90;99.90
37528;DHT22;23372;52.050;4.810;2023-04-24T13:53:54;12.30;99.90
37528;DHT22;23372;52.050;4.810;2023-04-24T13:56:21;12.20;99.90
37528;DHT22;23372;52.050;4.810;2023-04-24T13:58:48;12.40;99.90
37528;DHT22;23372;52.050;4.810;2023-04-24T14:01:14;12.40;99.90
37528;DHT22;23372;52.050;4.810;2023-04-24T14:03:41;12.30;99.90
37528;DHT22;23372;52.050;4.810;2023-04-24T14:06:08;12.30;99.90
37528;DHT22;23372;52.050;4.810;2023-04-24T14:08:34;12.00;99.90
37528;DHT22;23372;52.050;4.810;2023-04-24T14:11:00;12.00;99.90
37528;DHT22;23372;52.050;4.810;2023-04-24T14:13:26;12.30;99.90
37528;DHT22;23372;52.050;4.810;2023-04-24T14:15:52;12.70;99.90
37528;DHT22;23372;52.050;4.810;2023-04-24T14:18:18;12.60;99.90
37528;DHT22;23372;52.050;4.810;2023-04-24T14:20:44;12.20;99.90
37528;DHT22;23372;52.050;4.810;2023-04-24T14:23:10;11.60;99.90
37528;DHT22;23372;52.050;4.810;2023-04-24T14:25:36;11.20;99.90
37528;DHT22;23372;52.050;4.810;2023-04-24T14:28:02;10.60;99.90
37528;DHT22;23372;52.050;4.810;2023-04-24T14:30:27;10.10;99.90
37528;DHT22;23372;52.050;4.810;2023-04-24T14:32:53;9.90;99.90
37528;DHT22;23372;52.050;4.810;2023-04-24T14:35:19;9.90;99.90
37528;DHT22;23372;52.050;4.810;2023-04-24T14:37:44;10.00;99.90
37528;DHT22;23372;52.050;4.810;2023-04-24T14:40:10;10.10;99.90
37528;DHT22;23372;52.050;4.810;2023-04-24T14:42:36;10.30;99.90
37528;DHT22;23372;52.050;4.810;2023-04-24T14:45:02;10.50;99.90
37528;DHT22;23372;52.050;4.810;2023-04-24T14:47:28;10.70;99.90
37528;DHT22;23372;52.050;4.810;2023-04-24T14:49:54;10.80;99.90
37528;DHT22;23372;52.050;4.810;2023-04-24T14:52:21;10.70;99.90
37528;DHT22;23372;52.050;4.810;2023-04-24T14:54:46;10.70;99.90
37528;DHT22;23372;52.050;4.810;2023-04-24T14:57:12;10.80;99.90
37528;DHT22;23372;52.050;4.810;2023-04-24T14:59:38;10.80;99.90
37528;DHT22;23372;52.050;4.810;2023-04-24T15:02:06;10.80;99.90
37528;DHT22;23372;52.050;4.810;2023-04-24T15:04:32;10.80;99.90
37528;DHT22;23372;52.050;4.810;2023-04-24T15:06:58;11.00;99.90
37528;DHT22;23372;52.050;4.810;2023-04-24T15:09:25;11.40;99.90
37528;DHT22;23372;52.050;4.810;2023-04-24T15:11:51;11.50;99.90
37528;DHT22;23372;52.050;4.810;2023-04-24T15:14:18;11.50;99.90
37528;DHT22;23372;52.050;4.810;2023-04-24T15:16:44;11.30;99.90
37528;DHT22;23372;52.050;4.810;2023-04-24T15:19:09;10.90;99.90
37528;DHT22;23372;52.050;4.810;2023-04-24T15:21:38;10.60;99.90
37528;DHT22;23372;52.050;4.810;2023-04-24T15:24:07;10.50;99.90
37528;DHT22;23372;52.050;4.810;2023-04-24T15:26:32;10.40;99.90
37528;DHT22;23372;52.050;4.810;2023-04-24T15:28:58;10.60;99.90
37528;DHT22;23372;52.050;4.810;2023-04-24T15:31:24;10.90;99.90
37528;DHT22;23372;52.050;4.810;2023-04-24T15:33:50;10.90;99.90
37528;DHT22;23372;52.050;4.810;2023-04-24T15:36:17;10.90;99.90
37528;DHT22;23372;52.050;4.810;2023-04-24T15:38:43;10.90;99.90
37528;DHT22;23372;52.050;4.810;2023-04-24T15:41:09;10.90;99.90
37528;DHT22;23372;52.050;4.810;2023-04-24T15:43:35;10.90;99.90
37528;DHT22;23372;52.050;4.810;2023-04-24T15:46:02;10.80;99.90
37528;DHT22;23372;52.050;4.810;2023-04-24T15:48:29;10.70;99.90